Bentonville, AR

12:29 AM CST on February 01, 2015 (GMT -0600)
Bentonville (Denali Park) | Change Station
CLOSE
Current Station
Personal Weather Station
Location: Bentonville, AR
Elevation: 1266 ft
Nearby Weather Stations

Elev 1266 ft 36.37 °N, 94.23 °W | Updated 17 seconds ago

Rain
Rain
40.3 °F
Feels Like 40 °F
N
0.0
Wind Variable Wind from SE
Gusts 5.4 mph

Today
High -- | Low -- °F
--% Chance of Precip.
Yesterday
High -- | Low -- °F
Precip. -- in
7:18 AM 5:43 PM
Waxing Gibbous, 93% visible
Pressure 29.87 in
Visibility 10.0 miles
Clouds Mostly Cloudy 2500 ft
Mostly Cloudy 3300 ft
Overcast 4700 ft
Windchill 40 °F
Dew Point 38 °F
Humidity 91%
Rainfall 0.05 in
Snow Depth Not available.
UV 0 out of 12
Pollen 3.60 out of 12
Air Quality Not available.
Flu Activity Not available.
METAR KVBT 010615Z AUTO 18013G18KT 10SM BKN025 BKN033 OVC047 05/02 A2987 RMK AO1 P0003

More Conditions Fewer Conditions

Pressure 29.87 in
Visibility 10.0 miles
Clouds Mostly Cloudy 2500 ft
Mostly Cloudy 3300 ft
Overcast 4700 ft
Windchill 40 °F
Dew Point 38 °F
Humidity 91%
Rainfall 0.05 in
Snow Depth Not available.
UV 0 out of 12
Pollen 3.60 out of 12
Air Quality Not available.
Flu Activity Not available.
METAR KVBT 010615Z AUTO 18013G18KT 10SM BKN025 BKN033 OVC047 05/02 A2987 RMK AO1 P0003

More Conditions Fewer Conditions

Nowcast | as of 11:53 PM CST on January 31, 2015

At 11:45 PM...National Weather Service Doppler radars continued to detect a large area of rain affecting all of eastern Oklahoma and northwest Arkansas. Precipitation amounts have remained rather light with around a five hundredth to ten hundredths per hour. This rain area was moving northeast...around 35 miles per hour. Through 1:00 am...rain or drizzle will persist across much of eastern Oklahoma and northwest Arkansas. Precipitation amounts are expected to remain rather light.

×

10-Day Weather Forecast

Almanac

Astronomy

Feb. 01, 2015 Rise Set
Actual Time
Civil Twilight
Nautical Twilight
Astronomical Twilight
Moon
Length of Visible Light
Length of Day
Tomorrow will be .
, % of the Moon is Illuminated

Today's Extremes

State Highs State Lows

Community

WunderPhotos

Upload Photos

1,792,323 photos uploaded!

WunderBlogs® & News

Nearby

Air Quality

  Air Quality AQ Index Pollutant
Not available.

Snow Depth

Station Depth Elevation

Earthquake Activity

City Distance Mag. Time & Date
Minimum magnitude displayed is 2.5.

Coastal Water Temperatures

Place Temperature

Nearby Weather Stations